Time;durP1;ratioP1;P1;durP2;ratioP2;P2;SDS_P1;SDS_P2;PMS_P1;PMS_P2;Temp;Humidity;BMP_temperature;BMP_pressure;BME280_temperature;BME280_humidity;BME280_pressure;Samples;Min_cycle;Max_cycle;Signal;HPM_P1;HPM_P2
2023/06/18 00:02:24;;;;;;;6.30;4.80;;;;;;;26.53;50.01;100746.55;106794;1267;25471;-50
2023/06/18 00:04:53;;;;;;;6.20;4.70;;;;;;;26.51;49.94;100746.17;106863;1269;25362;-50
2023/06/18 00:07:20;;;;;;;5.90;4.70;;;;;;;26.51;50.01;100744.80;106913;1259;25481;-50
2023/06/18 00:09:47;;;;;;;5.40;4.90;;;;;;;26.49;49.96;100743.14;106868;1264;25401;-50
2023/06/18 00:12:14;;;;;;;6.80;5.10;;;;;;;26.48;49.99;100743.48;106845;1264;24256;-50
2023/06/18 00:14:41;;;;;;;5.20;4.80;;;;;;;26.46;49.98;100745.90;106909;1270;25312;-50
2023/06/18 00:17:08;;;;;;;5.60;5.10;;;;;;;26.45;50.18;100744.02;106793;1270;25484;-50
2023/06/18 00:19:37;;;;;;;6.10;5.10;;;;;;;26.43;50.51;100745.81;106734;1270;25430;-51
2023/06/18 00:22:05;;;;;;;6.50;5.00;;;;;;;26.42;50.56;100742.08;106724;1276;25320;-50
2023/06/18 00:24:32;;;;;;;6.30;4.80;;;;;;;26.39;50.75;100738.56;106768;1264;25321;-50
2023/06/18 00:26:59;;;;;;;8.70;5.00;;;;;;;26.38;50.74;100743.14;106772;1272;25331;-50
2023/06/18 00:29:29;;;;;;;5.80;4.70;;;;;;;26.36;50.63;100743.30;106862;1273;25325;-50
2023/06/18 00:31:56;;;;;;;6.40;5.20;;;;;;;26.25;50.82;100745.67;106788;1266;25325;-50
2023/06/18 00:34:32;;;;;;;6.10;5.00;;;;;;;26.09;51.25;100750.48;106849;1266;25475;-50
2023/06/18 00:37:00;;;;;;;7.40;5.60;;;;;;;26.05;51.42;100749.02;106821;1255;25423;-50
2023/06/18 00:39:27;;;;;;;5.80;5.20;;;;;;;26.01;51.69;100750.23;106802;1266;22523;-50
2023/06/18 00:41:54;;;;;;;5.70;4.50;;;;;;;25.99;51.53;100747.04;106801;1266;25322;-50
2023/06/18 00:44:21;;;;;;;5.10;4.60;;;;;;;25.97;51.16;100751.27;106706;1263;25378;-50
2023/06/18 00:46:49;;;;;;;9.10;4.70;;;;;;;25.96;50.95;100745.39;106808;1268;25439;-50
2023/06/18 00:49:18;;;;;;;6.50;4.70;;;;;;;25.94;50.86;100743.61;106769;1269;25350;-50
2023/06/18 00:51:46;;;;;;;5.80;4.60;;;;;;;25.92;50.93;100742.66;106826;1260;25265;-51
2023/06/18 00:54:16;;;;;;;5.10;4.20;;;;;;;25.92;51.01;100743.89;107109;1272;22639;-50
2023/06/18 00:56:53;;;;;;;7.10;4.70;;;;;;;25.91;51.14;100741.67;107123;1269;25337;-50
2023/06/18 00:59:22;;;;;;;8.30;5.40;;;;;;;25.91;51.13;100737.84;107036;1257;25352;-50
2023/06/18 01:01:51;;;;;;;7.10;4.90;;;;;;;25.92;51.30;100743.55;107023;1263;26731;-50
2023/06/18 01:04:20;;;;;;;7.20;4.80;;;;;;;26.00;51.37;100746.45;106847;1260;22547;-50
2023/06/18 01:06:52;;;;;;;5.20;4.70;;;;;;;26.18;50.76;100745.10;107106;1257;24282;-50
2023/06/18 01:09:24;;;;;;;9.00;5.20;;;;;;;26.20;50.37;100740.94;106807;1273;22548;-50
2023/06/18 01:11:52;;;;;;;6.50;4.90;;;;;;;26.21;50.09;100741.95;107084;1263;25398;-50
2023/06/18 01:14:25;;;;;;;7.30;4.40;;;;;;;26.21;49.99;100740.38;107206;1256;22541;-50
2023/06/18 01:16:56;;;;;;;6.30;4.60;;;;;;;26.20;49.94;100740.95;107158;1263;22545;-51
2023/06/18 01:19:41;;;;;;;4.20;3.90;;;;;;;26.19;49.88;100736.95;107098;1256;25477;-51
2023/06/18 01:22:26;;;;;;;7.80;5.30;;;;;;;26.17;49.90;100736.11;107062;1267;25437;-50
2023/06/18 01:24:57;;;;;;;10.90;5.10;;;;;;;26.15;50.39;100733.64;107005;1264;25344;-50
2023/06/18 01:27:33;;;;;;;7.30;4.70;;;;;;;26.12;50.63;100738.77;107119;1263;22520;-50
2023/06/18 01:30:00;;;;;;;6.10;5.50;;;;;;;26.09;50.84;100738.44;107172;1255;22554;-51
2023/06/18 01:32:28;;;;;;;5.60;5.00;;;;;;;26.05;51.43;100743.66;106992;1255;22543;-50
2023/06/18 01:34:55;;;;;;;5.50;4.90;;;;;;;26.02;51.66;100745.78;107053;1270;25347;-50
2023/06/18 01:37:35;;;;;;;6.20;5.00;;;;;;;25.99;51.85;100748.85;107109;1256;25318;-50
2023/06/18 01:40:41;;;;;;;7.00;5.10;;;;;;;25.95;51.88;100755.19;107135;1265;26156;-50
2023/06/18 01:43:26;;;;;;;5.40;4.90;;;;;;;25.92;51.93;100756.03;106339;1277;25597;-50
2023/06/18 01:46:06;;;;;;;6.30;5.10;;;;;;;25.86;51.98;100758.64;106744;1276;25363;-51
2023/06/18 01:48:56;;;;;;;8.30;4.90;;;;;;;25.83;52.25;100758.88;106714;1272;25395;-50
2023/06/18 01:51:24;;;;;;;7.10;4.60;;;;;;;25.63;52.64;100763.95;106625;1272;22532;-49
2023/06/18 01:53:54;;;;;;;4.90;4.40;;;;;;;25.55;52.51;100767.48;106747;1261;25698;-50
2023/06/18 01:56:21;;;;;;;5.80;4.70;;;;;;;25.57;52.25;100768.16;106416;1276;22533;-50
2023/06/18 01:58:48;;;;;;;6.70;5.10;;;;;;;25.64;51.81;100773.33;106691;1273;25375;-50
2023/06/18 02:01:15;;;;;;;7.20;5.10;;;;;;;25.69;51.56;100773.76;106293;1276;25380;-50
2023/06/18 02:03:43;;;;;;;5.80;4.90;;;;;;;25.64;51.31;100776.16;106592;1271;25462;-50
2023/06/18 02:06:11;;;;;;;6.10;5.10;;;;;;;25.63;51.42;100778.21;106296;1274;25506;-50
2023/06/18 02:08:37;;;;;;;6.30;4.90;;;;;;;25.63;51.87;100779.80;106642;1270;23129;-50
2023/06/18 02:11:04;;;;;;;5.60;4.70;;;;;;;25.60;52.46;100780.00;106783;1269;22537;-51
2023/06/18 02:13:32;;;;;;;8.10;4.70;;;;;;;25.57;52.55;100781.75;106578;1260;25498;-53
2023/06/18 02:15:59;;;;;;;5.50;4.70;;;;;;;25.52;52.75;100783.00;106394;1279;25316;-49
2023/06/18 02:18:31;;;;;;;5.90;4.80;;;;;;;25.51;52.75;100786.98;106511;1261;25418;-49
2023/06/18 02:20:59;;;;;;;6.10;4.60;;;;;;;25.51;52.79;100788.64;106696;1266;25374;-49
2023/06/18 02:23:27;;;;;;;5.60;5.00;;;;;;;25.49;52.63;100788.94;106968;1257;22523;-53
2023/06/18 02:25:57;;;;;;;6.00;4.60;;;;;;;25.51;52.63;100788.98;106806;1271;25372;-49
2023/06/18 02:28:24;;;;;;;4.90;4.40;;;;;;;25.52;52.60;100792.22;106828;1258;22535;-49
2023/06/18 02:30:52;;;;;;;6.00;4.30;;;;;;;25.53;52.67;100792.14;107180;1257;25363;-49
2023/06/18 02:33:19;;;;;;;7.50;4.90;;;;;;;25.56;52.59;100795.88;106870;1267;23395;-49
2023/06/18 02:35:46;;;;;;;4.30;3.90;;;;;;;25.58;52.61;100797.61;106824;1270;23219;-48
2023/06/18 02:38:15;;;;;;;5.30;4.20;;;;;;;25.61;52.48;100798.59;107035;1267;25478;-48
2023/06/18 02:40:42;;;;;;;8.80;4.50;;;;;;;25.63;52.51;100797.20;107031;1260;25436;-49
2023/06/18 02:43:09;;;;;;;4.50;4.10;;;;;;;25.65;52.76;100805.23;107192;1251;25347;-49
2023/06/18 02:45:37;;;;;;;5.70;4.30;;;;;;;25.65;52.81;100801.25;106871;1267;25449;-48
2023/06/18 02:48:04;;;;;;;5.10;4.60;;;;;;;25.66;52.89;100803.69;107120;1257;25443;-48
2023/06/18 02:50:32;;;;;;;4.60;4.20;;;;;;;25.66;52.94;100804.37;106930;1270;25334;-49
2023/06/18 02:52:59;;;;;;;8.00;4.90;;;;;;;25.66;53.15;100807.62;106833;1266;25331;-48
2023/06/18 02:55:27;;;;;;;5.90;4.80;;;;;;;25.65;53.61;100811.08;107221;1257;25382;-49
2023/06/18 02:57:54;;;;;;;6.70;4.40;;;;;;;25.63;53.67;100817.27;107029;1261;22980;-49
2023/06/18 03:00:21;;;;;;;6.00;4.70;;;;;;;25.62;53.55;100818.95;107093;1264;25384;-48
2023/06/18 03:02:48;;;;;;;5.50;4.60;;;;;;;25.61;53.45;100821.67;106927;1260;22521;-49
2023/06/18 03:05:19;;;;;;;7.60;4.10;;;;;;;25.61;53.44;100824.54;107200;1255;22676;-49
2023/06/18 03:07:46;;;;;;;6.10;4.20;;;;;;;25.61;53.29;100823.84;107010;1254;25321;-49
2023/06/18 03:10:13;;;;;;;6.60;4.80;;;;;;;25.60;53.42;100823.17;107071;1266;25408;-49
2023/06/18 03:12:42;;;;;;;6.80;4.80;;;;;;;25.61;53.44;100827.40;107100;1254;22627;-49
2023/06/18 03:15:23;;;;;;;;;;;;;;;25.63;53.35;100825.15;107118;1264;24195;-49
2023/06/18 03:17:50;;;;;;;5.00;4.20;;;;;;;25.64;53.36;100828.36;106814;1274;25507;-49
2023/06/18 03:20:18;;;;;;;6.30;4.40;;;;;;;25.64;53.48;100832.80;106880;1273;25343;-48
2023/06/18 03:22:50;;;;;;;6.60;4.30;;;;;;;25.65;53.60;100835.98;106887;1263;22546;-49
2023/06/18 03:25:19;;;;;;;4.90;4.30;;;;;;;25.65;53.35;100839.48;106927;1257;25344;-48
2023/06/18 03:27:47;;;;;;;7.60;4.00;;;;;;;25.66;52.90;100844.58;106966;1264;25513;-49
2023/06/18 03:30:14;;;;;;;4.20;3.80;;;;;;;25.69;52.56;100843.75;106772;1255;25539;-48
2023/06/18 03:32:43;;;;;;;5.20;4.70;;;;;;;25.73;52.02;100843.29;106982;1264;25377;-48
2023/06/18 03:35:10;;;;;;;8.20;4.40;;;;;;;25.76;51.69;100844.91;106939;1254;24249;-49
2023/06/18 03:37:37;;;;;;;7.00;4.40;;;;;;;25.80;51.46;100840.36;107083;1257;25500;-49
2023/06/18 03:40:05;;;;;;;7.40;4.60;;;;;;;25.84;51.48;100844.86;107028;1267;25783;-49
2023/06/18 03:42:33;;;;;;;6.50;4.50;;;;;;;25.93;51.38;100841.27;107027;1267;22520;-48
2023/06/18 03:45:00;;;;;;;5.10;4.20;;;;;;;26.07;50.79;100847.69;106525;1276;25350;-48
2023/06/18 03:47:27;;;;;;;4.80;3.90;;;;;;;26.26;50.51;100842.84;106808;1260;25327;-49
2023/06/18 03:49:54;;;;;;;4.50;3.80;;;;;;;26.44;50.11;100848.61;106953;1258;25373;-49
2023/06/18 03:52:22;;;;;;;8.40;4.20;;;;;;;26.60;50.12;100851.40;107000;1261;25340;-48
2023/06/18 03:54:49;;;;;;;5.70;4.60;;;;;;;26.92;49.65;100852.40;106865;1268;25378;-49
2023/06/18 03:57:17;;;;;;;5.90;4.30;;;;;;;27.18;49.28;100848.58;107004;1267;22527;-48
2023/06/18 03:59:44;;;;;;;4.90;4.40;;;;;;;27.38;48.71;100848.77;107185;1257;24220;-48
2023/06/18 04:02:15;;;;;;;6.10;5.00;;;;;;;27.48;48.51;100848.22;106857;1267;22533;-49
2023/06/18 04:04:43;;;;;;;6.10;5.50;;;;;;;27.50;48.08;100849.82;107111;1254;25315;-48
2023/06/18 04:07:10;;;;;;;5.60;4.90;;;;;;;27.43;48.13;100856.70;107128;1256;25356;-48
2023/06/18 04:09:38;;;;;;;5.90;5.10;;;;;;;27.37;48.16;100859.91;106906;1270;25386;-48
2023/06/18 04:12:06;;;;;;;6.50;4.90;;;;;;;27.37;48.54;100860.75;106697;1269;25319;-48
2023/06/18 04:14:36;;;;;;;5.10;4.60;;;;;;;27.49;48.20;100863.86;107073;1254;25417;-49
2023/06/18 04:17:04;;;;;;;7.30;5.50;;;;;;;27.61;47.75;100865.73;107105;1267;25356;-49
2023/06/18 04:19:31;;;;;;;7.60;5.10;;;;;;;27.63;47.45;100867.88;106828;1263;22579;-49
2023/06/18 04:21:58;;;;;;;7.30;5.00;;;;;;;27.57;47.53;100872.03;107022;1261;23855;-48
2023/06/18 04:24:25;;;;;;;5.40;4.80;;;;;;;27.47;47.35;100875.11;107069;1264;25346;-48
2023/06/18 04:26:53;;;;;;;4.90;4.50;;;;;;;27.31;47.93;100870.37;107085;1258;25331;-48
2023/06/18 04:29:22;;;;;;;7.80;5.20;;;;;;;27.19;47.85;100873.27;106836;1260;25396;-48
2023/06/18 04:31:50;;;;;;;8.00;4.90;;;;;;;27.08;48.06;100873.35;107186;1256;25319;-49
2023/06/18 04:34:17;;;;;;;6.80;5.30;;;;;;;26.99;48.23;100875.27;107191;1267;25338;-48
2023/06/18 04:36:44;;;;;;;8.40;5.30;;;;;;;26.91;48.74;100883.59;107117;1263;25440;-48
2023/06/18 04:39:12;;;;;;;7.30;4.90;;;;;;;26.85;48.90;100886.80;106857;1270;25444;-48
2023/06/18 04:41:40;;;;;;;5.90;5.00;;;;;;;26.81;48.98;100885.73;107086;1261;25275;-49
2023/06/18 04:44:08;;;;;;;7.60;5.30;;;;;;;26.78;48.98;100890.66;107097;1257;22547;-49
2023/06/18 04:46:35;;;;;;;6.20;4.50;;;;;;;26.76;48.83;100893.29;107079;1260;25468;-49
2023/06/18 04:49:02;;;;;;;5.60;4.70;;;;;;;26.71;48.78;100893.44;107082;1273;25366;-49
2023/06/18 04:51:29;;;;;;;7.40;5.00;;;;;;;26.77;48.71;100898.80;107067;1254;24210;-49
2023/06/18 04:53:57;;;;;;;5.40;4.90;;;;;;;26.80;48.60;100898.87;107134;1251;25404;-49
2023/06/18 04:56:24;;;;;;;5.30;4.80;;;;;;;26.84;48.45;100904.86;106885;1261;25328;-49
2023/06/18 04:58:51;;;;;;;6.10;4.60;;;;;;;26.92;48.32;100905.42;107134;1251;25343;-49
2023/06/18 05:01:20;;;;;;;7.00;5.50;;;;;;;27.00;47.80;100909.90;107095;1254;25362;-49
2023/06/18 05:03:47;;;;;;;6.20;5.10;;;;;;;27.10;47.12;100912.53;107087;1261;24192;-49
2023/06/18 05:06:14;;;;;;;6.30;5.10;;;;;;;27.14;46.86;100915.36;106886;1267;25503;-50
2023/06/18 05:08:43;;;;;;;7.90;4.60;;;;;;;27.22;46.81;100913.80;106827;1264;25876;-49
2023/06/18 05:11:10;;;;;;;7.10;5.20;;;;;;;27.30;46.33;100914.29;107078;1257;25369;-49
2023/06/18 05:13:40;;;;;;;6.90;5.40;;;;;;;27.39;46.37;100919.96;107007;1255;25423;-49
2023/06/18 05:16:11;;;;;;;8.80;5.00;;;;;;;27.38;46.11;100918.75;106914;1260;22550;-49
2023/06/18 05:18:39;;;;;;;8.60;4.70;;;;;;;27.44;46.06;100921.89;106826;1257;25337;-49
2023/06/18 05:21:07;;;;;;;5.80;5.10;;;;;;;27.54;46.28;100918.98;107060;1269;25331;-49
2023/06/18 05:23:35;;;;;;;6.20;5.50;;;;;;;27.69;46.15;100925.96;107013;1258;25502;-49
2023/06/18 05:26:02;;;;;;;6.10;5.40;;;;;;;27.89;46.17;100923.23;106741;1268;25349;-49
2023/06/18 05:28:29;;;;;;;7.50;5.40;;;;;;;28.20;45.71;100931.94;107013;1254;25462;-49
2023/06/18 05:30:57;;;;;;;5.60;4.20;;;;;;;28.56;44.79;100934.64;107124;1265;22527;-49
2023/06/18 05:33:25;;;;;;;7.10;5.10;;;;;;;28.82;43.69;100935.89;106857;1273;25334;-49
2023/06/18 05:35:56;;;;;;;5.50;4.90;;;;;;;29.04;43.27;100935.59;106957;1264;25312;-49
2023/06/18 05:38:23;;;;;;;5.60;4.90;;;;;;;29.21;42.45;100939.70;106792;1261;25389;-49
2023/06/18 05:40:50;;;;;;;7.10;4.80;;;;;;;29.36;42.02;100942.10;107058;1257;25319;-49
2023/06/18 05:43:17;;;;;;;5.70;4.70;;;;;;;29.49;41.64;100942.46;106734;1267;25350;-49
2023/06/18 05:45:48;;;;;;;7.50;4.80;;;;;;;29.65;41.23;100943.55;107106;1257;25329;-49
2023/06/18 05:48:15;;;;;;;5.40;4.40;;;;;;;29.82;40.97;100941.84;107136;1264;25322;-49
2023/06/18 05:50:56;;;;;;;5.80;5.00;;;;;;;29.97;40.35;100945.15;107131;1257;25395;-49
2023/06/18 05:53:23;;;;;;;6.70;4.10;;;;;;;30.08;40.14;100941.70;107086;1263;25331;-49
2023/06/18 05:55:50;;;;;;;5.30;4.60;;;;;;;30.26;39.91;100943.96;107224;1257;25440;-50
2023/06/18 05:58:17;;;;;;;4.40;4.00;;;;;;;30.50;39.10;100945.45;107064;1257;25328;-49
2023/06/18 06:00:45;;;;;;;5.70;4.30;;;;;;;30.75;38.64;100945.46;106958;1257;23239;-50
2023/06/18 06:03:15;;;;;;;4.90;4.10;;;;;;;31.00;37.98;100950.37;107038;1260;25401;-49
2023/06/18 06:05:42;;;;;;;6.80;4.30;;;;;;;31.22;37.66;100951.80;107104;1256;25353;-50
2023/06/18 06:08:10;;;;;;;5.30;4.80;;;;;;;31.43;37.25;100950.27;107128;1257;25331;-50
2023/06/18 06:10:38;;;;;;;4.80;4.30;;;;;;;31.54;37.11;100951.03;106948;1256;23991;-48
2023/06/18 06:13:05;;;;;;;7.30;4.40;;;;;;;31.58;37.02;100949.86;106670;1255;24207;-51
2023/06/18 06:15:34;;;;;;;6.40;4.70;;;;;;;31.58;37.07;100952.75;106917;1251;25567;-50
2023/06/18 06:18:02;;;;;;;7.00;4.80;;;;;;;31.57;36.97;100956.41;106891;1260;25337;-50
2023/06/18 06:20:29;;;;;;;4.50;4.00;;;;;;;31.68;36.85;100955.23;106974;1267;24223;-51
2023/06/18 06:22:56;;;;;;;6.20;4.50;;;;;;;31.83;36.49;100953.08;107004;1265;22523;-50
2023/06/18 06:25:23;;;;;;;6.90;3.90;;;;;;;31.89;36.27;100953.99;107114;1253;22520;-50
2023/06/18 06:27:50;;;;;;;5.10;4.10;;;;;;;31.92;36.02;100957.80;107120;1263;22571;-50
2023/06/18 06:30:17;;;;;;;5.80;5.10;;;;;;;31.91;36.04;100957.02;107082;1256;25414;-51
2023/06/18 06:32:44;;;;;;;4.60;4.20;;;;;;;31.85;36.07;100959.43;106918;1259;25460;-50
2023/06/18 06:35:12;;;;;;;5.20;4.50;;;;;;;31.85;36.09;100961.83;107088;1267;25382;-51
2023/06/18 06:37:40;;;;;;;6.20;4.50;;;;;;;31.78;35.97;100960.90;107078;1263;25366;-50
2023/06/18 06:40:08;;;;;;;6.30;4.50;;;;;;;31.64;36.29;100962.28;107061;1266;25395;-49
2023/06/18 06:42:37;;;;;;;8.10;5.10;;;;;;;31.49;36.52;100962.69;107055;1254;24228;-49
2023/06/18 06:45:39;;;;;;;7.10;5.70;;;;;;;31.35;36.43;100963.76;106429;1257;25372;-50
2023/06/18 06:48:09;;;;;;;5.70;5.20;;;;;;;31.21;35.88;100961.90;106889;1260;25321;-49
2023/06/18 06:51:12;;;;;;;5.60;4.90;;;;;;;30.97;35.73;100962.82;106445;1259;25433;-49
2023/06/18 06:53:47;;;;;;;7.50;4.70;;;;;;;30.80;36.21;100964.77;106768;1263;25328;-49
2023/06/18 06:56:16;;;;;;;6.20;5.00;;;;;;;30.62;36.59;100965.77;106817;1251;25395;-49
2023/06/18 06:58:43;;;;;;;6.20;4.60;;;;;;;30.55;36.57;100968.55;106939;1257;25375;-49
2023/06/18 07:01:15;;;;;;;4.90;4.40;;;;;;;30.47;36.66;100969.40;106942;1257;25424;-49
2023/06/18 07:03:42;;;;;;;6.00;5.10;;;;;;;30.37;37.11;100966.70;107057;1257;25405;-49
2023/06/18 07:06:09;;;;;;;5.20;4.70;;;;;;;30.48;36.82;100968.35;107043;1257;25395;-49
2023/06/18 07:08:37;;;;;;;5.10;4.60;;;;;;;30.56;36.30;100966.93;106855;1257;25366;-49
2023/06/18 07:11:04;;;;;;;5.20;4.70;;;;;;;30.59;35.97;100966.98;107014;1250;25322;-49
2023/06/18 07:13:31;;;;;;;6.00;5.00;;;;;;;30.59;36.25;100970.15;107166;1256;25366;-50
2023/06/18 07:15:58;;;;;;;5.70;5.10;;;;;;;30.60;36.07;100976.14;107033;1264;25471;-49
2023/06/18 07:18:25;;;;;;;6.80;5.90;;;;;;;30.59;35.79;100978.98;107053;1270;25389;-49
2023/06/18 07:20:52;;;;;;;6.50;5.90;;;;;;;30.57;35.88;100975.61;107096;1253;25365;-49
2023/06/18 07:23:19;;;;;;;6.50;5.90;;;;;;;30.54;36.22;100977.60;107158;1258;24207;-49
2023/06/18 07:25:46;;;;;;;6.20;5.60;;;;;;;30.55;36.70;100978.61;107114;1256;23908;-49
2023/06/18 07:28:15;;;;;;;8.90;6.00;;;;;;;30.57;37.26;100982.55;107057;1253;24253;-49
2023/06/18 07:30:42;;;;;;;5.80;5.30;;;;;;;30.64;37.18;100984.75;107136;1256;25319;-48
2023/06/18 07:33:09;;;;;;;7.80;5.60;;;;;;;30.68;36.98;100985.00;106897;1260;25424;-49
2023/06/18 07:35:36;;;;;;;8.10;6.00;;;;;;;30.64;37.16;100986.10;107124;1257;25328;-49
2023/06/18 07:38:03;;;;;;;7.30;6.00;;;;;;;30.60;36.88;100980.07;107179;1266;25409;-49
2023/06/18 07:40:33;;;;;;;8.70;5.80;;;;;;;30.51;37.08;100978.80;107149;1263;25359;-49
2023/06/18 07:43:01;;;;;;;7.40;5.60;;;;;;;30.43;36.73;100979.63;106874;1270;25332;-49
2023/06/18 07:45:28;;;;;;;6.80;5.40;;;;;;;30.36;36.91;100979.47;107052;1254;25380;-49
2023/06/18 07:47:55;;;;;;;6.40;5.40;;;;;;;30.32;37.46;100982.02;107071;1256;25341;-49
2023/06/18 07:50:22;;;;;;;6.30;5.10;;;;;;;30.34;37.33;100981.50;107075;1256;24212;-49
2023/06/18 07:52:50;;;;;;;6.30;5.10;;;;;;;30.40;37.43;100985.19;107106;1263;25342;-49
2023/06/18 07:55:17;;;;;;;6.00;5.20;;;;;;;30.47;37.13;100988.39;106825;1259;25359;-49
2023/06/18 07:57:44;;;;;;;8.50;5.50;;;;;;;30.50;37.28;100988.98;107043;1263;25532;-49
2023/06/18 08:00:12;;;;;;;6.30;5.20;;;;;;;30.52;37.51;100989.70;107180;1253;25356;-49
2023/06/18 08:02:40;;;;;;;7.50;5.40;;;;;;;30.47;37.92;100992.34;107107;1254;22566;-49
2023/06/18 08:05:07;;;;;;;5.40;4.90;;;;;;;30.49;38.14;100995.33;106809;1269;25386;-49
2023/06/18 08:07:35;;;;;;;7.30;5.10;;;;;;;30.55;37.86;100997.05;107057;1259;25328;-48
2023/06/18 08:10:03;;;;;;;5.60;4.90;;;;;;;30.62;38.01;101000.20;106861;1266;25238;-49
2023/06/18 08:12:30;;;;;;;6.40;5.30;;;;;;;30.69;37.88;101001.89;106838;1257;25344;-48
2023/06/18 08:14:57;;;;;;;6.60;5.00;;;;;;;30.76;37.82;101006.35;107155;1256;25382;-49
2023/06/18 08:17:24;;;;;;;5.90;5.30;;;;;;;30.82;37.49;101007.35;107120;1254;25331;-49
2023/06/18 08:19:50;;;;;;;6.00;4.60;;;;;;;30.90;37.54;101011.04;106823;1262;24209;-49
2023/06/18 08:22:18;;;;;;;6.80;5.30;;;;;;;30.97;37.43;101011.54;106939;1267;25401;-49
2023/06/18 08:24:45;;;;;;;8.40;5.30;;;;;;;31.04;37.11;101011.20;106822;1256;25325;-49
2023/06/18 08:27:12;;;;;;;5.90;5.30;;;;;;;31.11;37.23;101012.21;106657;1259;25408;-49
2023/06/18 08:29:39;;;;;;;6.20;5.40;;;;;;;31.18;36.89;101011.73;107045;1261;25420;-49
2023/06/18 08:32:06;;;;;;;5.60;5.10;;;;;;;31.21;36.81;101009.55;106840;1256;25424;-49
2023/06/18 08:34:36;;;;;;;6.00;5.30;;;;;;;31.24;36.38;101010.65;106911;1261;25317;-49
2023/06/18 08:37:04;;;;;;;7.80;6.30;;;;;;;31.26;36.27;101009.44;106986;1257;25394;-49
2023/06/18 08:39:31;;;;;;;6.70;5.60;;;;;;;31.26;36.32;101013.18;106716;1266;25402;-49
2023/06/18 08:42:01;;;;;;;9.60;5.70;;;;;;;31.28;36.59;101011.98;106887;1267;25353;-49
2023/06/18 08:44:29;;;;;;;6.30;5.70;;;;;;;31.34;36.31;101009.94;106937;1258;25324;-49
2023/06/18 08:47:00;;;;;;;7.40;5.50;;;;;;;31.42;36.48;101015.58;107268;1257;22551;-49
2023/06/18 08:49:27;;;;;;;5.70;5.20;;;;;;;31.49;36.81;101011.48;107175;1253;25372;-49
2023/06/18 08:51:54;;;;;;;6.80;5.30;;;;;;;31.54;36.83;101013.78;106743;1253;25552;-49
2023/06/18 08:54:23;;;;;;;6.30;5.60;;;;;;;31.58;36.62;101010.45;107125;1260;24342;-49
2023/06/18 08:56:50;;;;;;;5.80;5.30;;;;;;;31.63;36.39;101014.29;106764;1262;25564;-49
2023/06/18 08:59:18;;;;;;;6.20;5.60;;;;;;;31.67;36.02;101011.85;106928;1263;25356;-49
2023/06/18 09:01:45;;;;;;;7.50;6.20;;;;;;;31.76;35.57;101012.86;107087;1263;25390;-49
2023/06/18 09:04:13;;;;;;;5.80;5.20;;;;;;;31.85;35.21;101009.33;106858;1259;25340;-50
2023/06/18 09:06:41;;;;;;;6.40;5.10;;;;;;;31.89;35.19;101009.80;106854;1260;25453;-49
2023/06/18 09:09:10;;;;;;;5.70;5.20;;;;;;;31.92;35.27;101007.67;107461;1254;22407;-49
2023/06/18 09:11:37;;;;;;;5.90;5.30;;;;;;;31.95;35.13;101009.01;107220;1263;25356;-49
2023/06/18 09:14:04;;;;;;;6.30;5.60;;;;;;;31.97;35.27;101008.95;106977;1253;339104;-49
2023/06/18 09:16:32;;;;;;;6.40;5.80;;;;;;;32.02;35.52;101009.91;107181;1252;24334;-50
2023/06/18 09:18:59;;;;;;;6.00;5.30;;;;;;;32.08;34.95;101008.80;107197;1254;22530;-49
2023/06/18 09:21:40;;;;;;;5.70;5.20;;;;;;;32.14;35.24;101005.52;107170;1251;25485;-49
2023/06/18 09:24:17;;;;;;;6.40;5.70;;;;;;;32.23;35.36;101004.22;107295;1250;23284;-49
2023/06/18 09:26:44;;;;;;;5.60;5.00;;;;;;;32.31;34.99;101004.73;107216;1268;26102;-50
2023/06/18 09:29:11;;;;;;;6.00;5.40;;;;;;;32.39;34.90;101005.51;107269;1254;25471;-49
2023/06/18 09:31:44;;;;;;;7.00;5.30;;;;;;;32.44;34.93;101004.20;107126;1257;25329;-49
2023/06/18 09:34:18;;;;;;;9.10;5.20;;;;;;;32.49;35.06;101005.14;106841;1263;25377;-49
2023/06/18 09:36:48;;;;;;;6.40;5.00;;;;;;;32.53;34.91;101001.98;106828;1254;25567;-49
2023/06/18 09:39:19;;;;;;;;;;;;;;;32.56;34.88;101002.17;106991;1256;25300;-49
2023/06/18 09:41:47;;;;;;;5.90;5.30;;;;;;;32.60;34.45;100997.56;107168;1266;25356;-49
2023/06/18 09:44:15;;;;;;;5.90;4.90;;;;;;;32.64;34.03;100998.77;107007;1254;25368;-49
2023/06/18 09:46:46;;;;;;;5.10;4.60;;;;;;;32.66;34.16;100992.94;106872;1267;25405;-49
2023/06/18 09:49:16;;;;;;;5.50;5.00;;;;;;;32.69;34.16;100995.52;107159;1263;22520;-50
2023/06/18 09:51:44;;;;;;;7.30;5.30;;;;;;;32.71;33.96;100989.30;107105;1253;23864;-49
2023/06/18 09:54:11;;;;;;;5.80;5.00;;;;;;;32.76;34.19;100985.20;107014;1254;25384;-48
2023/06/18 09:56:39;;;;;;;8.20;5.40;;;;;;;32.82;34.07;100990.36;107004;1253;25362;-52
2023/06/18 09:59:06;;;;;;;5.10;4.70;;;;;;;32.88;33.96;100984.94;107074;1254;25347;-51
2023/06/18 10:01:46;;;;;;;5.20;4.70;;;;;;;32.94;33.61;100986.78;107180;1259;25318;-51
2023/06/18 10:04:16;;;;;;;5.40;5.00;;;;;;;33.01;32.96;100988.71;107177;1251;25277;-49
2023/06/18 10:06:51;;;;;;;5.10;4.60;;;;;;;33.06;32.73;100990.98;106803;1258;25379;-49
2023/06/18 10:09:19;;;;;;;5.10;4.70;;;;;;;33.11;32.11;100991.68;107151;1256;22681;-50
2023/06/18 10:11:49;;;;;;;5.80;5.10;;;;;;;33.14;32.14;100985.51;107052;1259;25407;-49
2023/06/18 10:14:18;;;;;;;7.80;4.90;;;;;;;33.18;32.06;100984.04;107219;1266;25370;-49
2023/06/18 10:16:51;;;;;;;5.80;5.20;;;;;;;33.19;32.16;100983.17;107123;1251;25227;-50
2023/06/18 10:19:23;;;;;;;5.30;4.90;;;;;;;33.19;32.40;100982.59;107037;1260;26475;-49
2023/06/18 10:22:00;;;;;;;5.30;4.80;;;;;;;33.19;32.58;100979.02;107075;1253;23325;-49
2023/06/18 10:24:37;;;;;;;8.10;4.80;;;;;;;33.20;32.81;100976.08;107114;1256;25403;-49
2023/06/18 10:27:07;;;;;;;5.70;5.20;;;;;;;33.19;32.94;100975.14;106841;1257;25793;-49
2023/06/18 10:29:34;;;;;;;6.80;5.80;;;;;;;33.17;32.90;100969.59;106621;1267;25381;-49
2023/06/18 10:32:04;;;;;;;5.70;5.10;;;;;;;33.17;33.02;100968.71;106769;1257;25335;-49
2023/06/18 10:34:32;;;;;;;5.50;5.00;;;;;;;33.15;32.92;100967.47;107175;1253;25350;-49
2023/06/18 10:37:00;;;;;;;5.40;4.90;;;;;;;33.09;33.02;100966.04;107198;1263;25359;-50
2023/06/18 10:39:27;;;;;;;5.50;4.70;;;;;;;32.99;32.74;100969.84;107186;1256;22520;-49
2023/06/18 10:41:54;;;;;;;5.10;4.60;;;;;;;32.93;32.59;100969.73;107284;1260;24239;-49
2023/06/18 10:44:48;;;;;;;6.30;5.10;;;;;;;32.93;32.99;100969.05;107152;1254;25359;-49
2023/06/18 10:47:28;;;;;;;5.30;4.80;;;;;;;32.99;32.54;100969.35;107010;1255;22534;-49
2023/06/18 10:50:07;;;;;;;5.30;4.80;;;;;;;32.95;32.65;100964.36;107115;1266;25272;-49
2023/06/18 10:53:01;;;;;;;5.40;4.90;;;;;;;32.91;32.33;100962.15;107136;1263;25449;-49
2023/06/18 10:55:28;;;;;;;5.20;4.70;;;;;;;32.88;32.13;100965.66;106393;1272;25372;-49
2023/06/18 10:58:02;;;;;;;5.00;4.50;;;;;;;32.87;31.85;100963.20;106829;1256;22717;-50
2023/06/18 11:00:40;;;;;;;4.90;4.40;;;;;;;32.84;31.84;100961.97;106705;1260;25360;-49
2023/06/18 11:03:16;;;;;;;6.40;4.90;;;;;;;32.85;32.07;100960.48;106815;1260;22931;-49
2023/06/18 11:05:46;;;;;;;6.10;4.80;;;;;;;32.89;32.72;100963.37;107283;1266;25359;-49
2023/06/18 11:08:34;;;;;;;5.20;4.60;;;;;;;32.94;33.21;100961.17;106934;1266;25328;-49
2023/06/18 11:11:06;;;;;;;5.00;4.40;;;;;;;33.01;33.75;100957.41;106909;1260;25356;-49
2023/06/18 11:13:41;;;;;;;5.00;4.50;;;;;;;33.09;33.92;100956.10;106865;1259;25530;-49
2023/06/18 11:16:10;;;;;;;5.60;5.10;;;;;;;33.15;33.78;100957.55;106608;1262;22659;-49
2023/06/18 11:18:42;;;;;;;6.20;4.40;;;;;;;33.21;33.42;100959.05;106869;1260;25872;-50
2023/06/18 11:21:19;;;;;;;4.90;4.50;;;;;;;33.26;33.25;100958.80;107049;1264;22530;-49
2023/06/18 11:23:47;;;;;;;5.40;4.60;;;;;;;33.30;33.08;100961.05;106933;1266;25420;-49
2023/06/18 11:26:18;;;;;;;5.30;4.90;;;;;;;33.32;32.72;100961.21;106852;1257;22981;-49
2023/06/18 11:28:46;;;;;;;4.70;4.30;;;;;;;33.32;32.90;100959.05;106802;1260;24398;-49